sensor_id;sensor_type;location;lat;lon;timestamp;temperature;humidity
43015;DHT22;28637;50.554;7.032;2023-01-16T00:04:36;4.50;99.90
43015;DHT22;28637;50.554;7.032;2023-01-16T00:09:37;4.40;99.90
43015;DHT22;28637;50.554;7.032;2023-01-16T00:14:37;4.40;99.90
43015;DHT22;28637;50.554;7.032;2023-01-16T00:19:38;4.40;99.90
43015;DHT22;28637;50.554;7.032;2023-01-16T00:24:39;4.40;99.90
43015;DHT22;28637;50.554;7.032;2023-01-16T00:29:39;4.30;99.90
43015;DHT22;28637;50.554;7.032;2023-01-16T00:34:40;4.40;99.90
43015;DHT22;28637;50.554;7.032;2023-01-16T00:39:41;4.40;99.90
43015;DHT22;28637;50.554;7.032;2023-01-16T00:44:41;4.50;99.90
43015;DHT22;28637;50.554;7.032;2023-01-16T00:49:42;4.60;99.90
43015;DHT22;28637;50.554;7.032;2023-01-16T00:54:42;4.70;99.90
43015;DHT22;28637;50.554;7.032;2023-01-16T00:59:43;4.70;99.90
43015;DHT22;28637;50.554;7.032;2023-01-16T01:04:44;4.60;99.90
43015;DHT22;28637;50.554;7.032;2023-01-16T01:09:44;4.60;99.90
43015;DHT22;28637;50.554;7.032;2023-01-16T01:14:45;4.60;99.90
43015;DHT22;28637;50.554;7.032;2023-01-16T01:19:46;4.50;99.90
43015;DHT22;28637;50.554;7.032;2023-01-16T01:24:47;4.50;99.90
43015;DHT22;28637;50.554;7.032;2023-01-16T01:29:49;4.40;99.90
43015;DHT22;28637;50.554;7.032;2023-01-16T01:34:50;4.40;99.90
43015;DHT22;28637;50.554;7.032;2023-01-16T01:39:51;4.40;99.90
43015;DHT22;28637;50.554;7.032;2023-01-16T01:49:55;4.50;99.90
43015;DHT22;28637;50.554;7.032;2023-01-16T01:55:01;4.50;99.90
43015;DHT22;28637;50.554;7.032;2023-01-16T02:00:16;4.50;99.90
43015;DHT22;28637;50.554;7.032;2023-01-16T02:05:24;4.50;99.90
43015;DHT22;28637;50.554;7.032;2023-01-16T02:10:47;4.50;99.90
43015;DHT22;28637;50.554;7.032;2023-01-16T02:15:49;4.50;99.90
43015;DHT22;28637;50.554;7.032;2023-01-16T02:53:29;4.40;99.90
43015;DHT22;28637;50.554;7.032;2023-01-16T02:58:32;4.50;99.90
43015;DHT22;28637;50.554;7.032;2023-01-16T03:25:18;4.70;99.90
43015;DHT22;28637;50.554;7.032;2023-01-16T03:31:00;4.70;99.90
43015;DHT22;28637;50.554;7.032;2023-01-16T03:36:15;4.70;99.90
43015;DHT22;28637;50.554;7.032;2023-01-16T03:41:22;4.80;99.90
43015;DHT22;28637;50.554;7.032;2023-01-16T03:46:29;4.70;99.90
43015;DHT22;28637;50.554;7.032;2023-01-16T03:51:36;4.70;99.90
43015;DHT22;28637;50.554;7.032;2023-01-16T03:56:45;4.70;99.90
43015;DHT22;28637;50.554;7.032;2023-01-16T04:01:57;4.70;99.90
43015;DHT22;28637;50.554;7.032;2023-01-16T04:07:27;4.80;99.90
43015;DHT22;28637;50.554;7.032;2023-01-16T04:12:36;4.70;99.90
43015;DHT22;28637;50.554;7.032;2023-01-16T04:17:39;4.70;99.90
43015;DHT22;28637;50.554;7.032;2023-01-16T04:22:41;4.70;99.90
43015;DHT22;28637;50.554;7.032;2023-01-16T04:27:46;4.70;99.90
43015;DHT22;28637;50.554;7.032;2023-01-16T04:32:47;4.80;99.90
43015;DHT22;28637;50.554;7.032;2023-01-16T04:37:48;4.80;99.90
43015;DHT22;28637;50.554;7.032;2023-01-16T04:42:48;4.80;99.90
43015;DHT22;28637;50.554;7.032;2023-01-16T04:47:50;4.80;99.90
43015;DHT22;28637;50.554;7.032;2023-01-16T04:52:51;4.70;99.90
43015;DHT22;28637;50.554;7.032;2023-01-16T04:57:52;4.70;99.90
43015;DHT22;28637;50.554;7.032;2023-01-16T05:02:53;4.70;99.90
43015;DHT22;28637;50.554;7.032;2023-01-16T05:07:53;4.80;99.90
43015;DHT22;28637;50.554;7.032;2023-01-16T05:13:12;4.90;99.90
43015;DHT22;28637;50.554;7.032;2023-01-16T05:18:13;4.90;99.90
43015;DHT22;28637;50.554;7.032;2023-01-16T05:23:14;4.80;99.90
43015;DHT22;28637;50.554;7.032;2023-01-16T05:28:14;4.90;99.90
43015;DHT22;28637;50.554;7.032;2023-01-16T05:33:15;4.80;99.90
43015;DHT22;28637;50.554;7.032;2023-01-16T05:38:16;4.90;99.90
43015;DHT22;28637;50.554;7.032;2023-01-16T05:43:16;4.90;99.90
43015;DHT22;28637;50.554;7.032;2023-01-16T05:48:17;4.90;99.90
43015;DHT22;28637;50.554;7.032;2023-01-16T05:53:18;4.90;99.90
43015;DHT22;28637;50.554;7.032;2023-01-16T05:58:18;5.00;99.90
43015;DHT22;28637;50.554;7.032;2023-01-16T06:03:19;5.00;99.90
43015;DHT22;28637;50.554;7.032;2023-01-16T06:08:21;5.00;99.90
43015;DHT22;28637;50.554;7.032;2023-01-16T06:13:21;5.00;99.90
43015;DHT22;28637;50.554;7.032;2023-01-16T06:18:22;5.00;99.90
43015;DHT22;28637;50.554;7.032;2023-01-16T06:23:23;5.10;99.90
43015;DHT22;28637;50.554;7.032;2023-01-16T06:28:23;5.10;99.90
43015;DHT22;28637;50.554;7.032;2023-01-16T06:33:24;5.10;99.90
43015;DHT22;28637;50.554;7.032;2023-01-16T06:38:25;5.20;99.90
43015;DHT22;28637;50.554;7.032;2023-01-16T06:43:26;5.20;99.90
43015;DHT22;28637;50.554;7.032;2023-01-16T06:48:27;5.20;99.90
43015;DHT22;28637;50.554;7.032;2023-01-16T06:53:28;5.30;99.90
43015;DHT22;28637;50.554;7.032;2023-01-16T06:58:28;5.30;99.90
43015;DHT22;28637;50.554;7.032;2023-01-16T07:03:29;5.40;99.90
43015;DHT22;28637;50.554;7.032;2023-01-16T07:08:30;5.40;99.90
43015;DHT22;28637;50.554;7.032;2023-01-16T07:13:30;5.40;99.90
43015;DHT22;28637;50.554;7.032;2023-01-16T07:18:31;5.40;99.90
43015;DHT22;28637;50.554;7.032;2023-01-16T07:23:54;5.40;99.90
43015;DHT22;28637;50.554;7.032;2023-01-16T07:28:56;5.40;99.90
43015;DHT22;28637;50.554;7.032;2023-01-16T07:33:57;5.30;99.90
43015;DHT22;28637;50.554;7.032;2023-01-16T07:38:58;5.20;99.90
43015;DHT22;28637;50.554;7.032;2023-01-16T07:43:59;5.20;99.90
43015;DHT22;28637;50.554;7.032;2023-01-16T07:49:00;5.00;99.90
43015;DHT22;28637;50.554;7.032;2023-01-16T07:54:00;5.00;99.90
43015;DHT22;28637;50.554;7.032;2023-01-16T07:59:01;5.10;99.90
43015;DHT22;28637;50.554;7.032;2023-01-16T08:04:02;5.20;99.90
43015;DHT22;28637;50.554;7.032;2023-01-16T08:09:03;5.10;99.90
43015;DHT22;28637;50.554;7.032;2023-01-16T08:14:05;5.00;99.90
43015;DHT22;28637;50.554;7.032;2023-01-16T08:19:06;5.00;99.90
43015;DHT22;28637;50.554;7.032;2023-01-16T08:24:06;4.90;99.90
43015;DHT22;28637;50.554;7.032;2023-01-16T08:29:08;4.80;99.90
43015;DHT22;28637;50.554;7.032;2023-01-16T08:34:09;4.90;99.90
43015;DHT22;28637;50.554;7.032;2023-01-16T08:39:10;5.10;99.90
43015;DHT22;28637;50.554;7.032;2023-01-16T08:44:11;5.00;99.90
43015;DHT22;28637;50.554;7.032;2023-01-16T08:49:30;5.00;99.90
43015;DHT22;28637;50.554;7.032;2023-01-16T08:54:49;4.90;99.90
43015;DHT22;28637;50.554;7.032;2023-01-16T08:59:50;4.90;99.90
43015;DHT22;28637;50.554;7.032;2023-01-16T09:04:51;4.90;99.90
43015;DHT22;28637;50.554;7.032;2023-01-16T09:09:51;4.80;99.90
43015;DHT22;28637;50.554;7.032;2023-01-16T09:14:52;4.80;99.90
43015;DHT22;28637;50.554;7.032;2023-01-16T09:19:55;4.80;99.90
43015;DHT22;28637;50.554;7.032;2023-01-16T09:24:55;4.80;99.90
43015;DHT22;28637;50.554;7.032;2023-01-16T09:29:56;4.90;99.90
43015;DHT22;28637;50.554;7.032;2023-01-16T09:34:57;4.90;99.90
43015;DHT22;28637;50.554;7.032;2023-01-16T09:39:58;4.90;99.90
43015;DHT22;28637;50.554;7.032;2023-01-16T09:45:20;4.80;99.90
43015;DHT22;28637;50.554;7.032;2023-01-16T09:50:40;4.90;99.90
43015;DHT22;28637;50.554;7.032;2023-01-16T09:55:50;4.80;99.90
43015;DHT22;28637;50.554;7.032;2023-01-16T10:01:16;4.70;99.90
43015;DHT22;28637;50.554;7.032;2023-01-16T10:06:32;4.70;99.90
43015;DHT22;28637;50.554;7.032;2023-01-16T10:11:40;4.70;99.90
43015;DHT22;28637;50.554;7.032;2023-01-16T10:17:14;4.70;99.90
43015;DHT22;28637;50.554;7.032;2023-01-16T10:22:32;4.80;99.90
43015;DHT22;28637;50.554;7.032;2023-01-16T10:28:46;4.70;99.90
43015;DHT22;28637;50.554;7.032;2023-01-16T10:38:49;4.70;99.90
43015;DHT22;28637;50.554;7.032;2023-01-16T10:43:55;4.80;99.90
43015;DHT22;28637;50.554;7.032;2023-01-16T10:49:16;4.90;99.90
43015;DHT22;28637;50.554;7.032;2023-01-16T10:54:29;4.90;99.90
43015;DHT22;28637;50.554;7.032;2023-01-16T10:59:31;4.90;99.90
43015;DHT22;28637;50.554;7.032;2023-01-16T11:04:34;5.00;99.90
43015;DHT22;28637;50.554;7.032;2023-01-16T11:09:36;5.20;99.90
43015;DHT22;28637;50.554;7.032;2023-01-16T11:14:41;5.30;99.90
43015;DHT22;28637;50.554;7.032;2023-01-16T11:20:02;5.40;99.90
43015;DHT22;28637;50.554;7.032;2023-01-16T11:25:03;5.50;99.90
43015;DHT22;28637;50.554;7.032;2023-01-16T11:30:15;5.60;99.90
43015;DHT22;28637;50.554;7.032;2023-01-16T11:35:17;5.80;99.90
43015;DHT22;28637;50.554;7.032;2023-01-16T11:40:21;5.90;99.90
43015;DHT22;28637;50.554;7.032;2023-01-16T11:45:24;5.70;99.90
43015;DHT22;28637;50.554;7.032;2023-01-16T11:50:48;5.60;99.90
43015;DHT22;28637;50.554;7.032;2023-01-16T12:01:50;5.60;99.90
43015;DHT22;28637;50.554;7.032;2023-01-16T12:07:19;5.40;99.90
43015;DHT22;28637;50.554;7.032;2023-01-16T12:13:02;5.20;99.90
43015;DHT22;28637;50.554;7.032;2023-01-16T12:24:03;5.40;99.90
43015;DHT22;28637;50.554;7.032;2023-01-16T12:39:53;5.50;99.90
43015;DHT22;28637;50.554;7.032;2023-01-16T13:07:11;5.60;99.90
43015;DHT22;28637;50.554;7.032;2023-01-16T13:12:16;5.40;99.90
43015;DHT22;28637;50.554;7.032;2023-01-16T13:17:44;5.30;99.90
43015;DHT22;28637;50.554;7.032;2023-01-16T13:22:51;5.30;99.90
43015;DHT22;28637;50.554;7.032;2023-01-16T13:28:00;5.20;99.90
43015;DHT22;28637;50.554;7.032;2023-01-16T13:33:16;5.20;99.90
43015;DHT22;28637;50.554;7.032;2023-01-16T13:44:25;5.10;99.90
43015;DHT22;28637;50.554;7.032;2023-01-16T13:49:25;5.30;99.90
43015;DHT22;28637;50.554;7.032;2023-01-16T13:54:41;5.40;99.90
43015;DHT22;28637;50.554;7.032;2023-01-16T13:59:56;5.50;99.90
43015;DHT22;28637;50.554;7.032;2023-01-16T14:10:25;5.60;99.90
43015;DHT22;28637;50.554;7.032;2023-01-16T14:21:23;5.70;99.90
43015;DHT22;28637;50.554;7.032;2023-01-16T14:31:44;5.70;99.90
43015;DHT22;28637;50.554;7.032;2023-01-16T14:36:49;5.70;99.90
43015;DHT22;28637;50.554;7.032;2023-01-16T14:41:50;5.70;99.90
43015;DHT22;28637;50.554;7.032;2023-01-16T14:58:01;5.80;99.90
43015;DHT22;28637;50.554;7.032;2023-01-16T15:03:12;5.70;99.90
43015;DHT22;28637;50.554;7.032;2023-01-16T15:08:16;5.70;99.90
43015;DHT22;28637;50.554;7.032;2023-01-16T15:13:30;5.60;99.90
43015;DHT22;28637;50.554;7.032;2023-01-16T15:18:53;5.60;99.90
43015;DHT22;28637;50.554;7.032;2023-01-16T15:24:20;5.60;99.90
43015;DHT22;28637;50.554;7.032;2023-01-16T15:29:42;5.60;99.90
43015;DHT22;28637;50.554;7.032;2023-01-16T15:35:03;5.50;99.90
43015;DHT22;28637;50.554;7.032;2023-01-16T15:40:05;5.50;99.90
43015;DHT22;28637;50.554;7.032;2023-01-16T15:45:24;5.40;99.90
43015;DHT22;28637;50.554;7.032;2023-01-16T15:55:49;5.30;99.90
43015;DHT22;28637;50.554;7.032;2023-01-16T16:01:03;5.30;99.90
43015;DHT22;28637;50.554;7.032;2023-01-16T16:06:07;5.20;99.90
43015;DHT22;28637;50.554;7.032;2023-01-16T16:11:10;5.10;99.90
43015;DHT22;28637;50.554;7.032;2023-01-16T16:16:33;5.00;99.90
43015;DHT22;28637;50.554;7.032;2023-01-16T16:21:53;5.00;99.90
43015;DHT22;28637;50.554;7.032;2023-01-16T16:27:15;5.00;99.90
43015;DHT22;28637;50.554;7.032;2023-01-16T16:32:17;5.00;99.90
43015;DHT22;28637;50.554;7.032;2023-01-16T16:37:19;5.00;99.90
43015;DHT22;28637;50.554;7.032;2023-01-16T16:47:29;4.90;99.90
43015;DHT22;28637;50.554;7.032;2023-01-16T16:52:33;4.90;99.90
43015;DHT22;28637;50.554;7.032;2023-01-16T16:57:42;4.60;99.90
43015;DHT22;28637;50.554;7.032;2023-01-16T17:03:12;4.60;99.90
43015;DHT22;28637;50.554;7.032;2023-01-16T17:08:19;4.50;99.90
43015;DHT22;28637;50.554;7.032;2023-01-16T17:13:21;4.50;99.90
43015;DHT22;28637;50.554;7.032;2023-01-16T17:18:23;4.40;99.90
43015;DHT22;28637;50.554;7.032;2023-01-16T17:23:25;4.20;99.90
43015;DHT22;28637;50.554;7.032;2023-01-16T17:28:27;4.60;99.90
43015;DHT22;28637;50.554;7.032;2023-01-16T17:33:27;4.50;99.90
43015;DHT22;28637;50.554;7.032;2023-01-16T17:38:30;4.30;99.90
43015;DHT22;28637;50.554;7.032;2023-01-16T17:43:31;4.20;99.90
43015;DHT22;28637;50.554;7.032;2023-01-16T17:48:50;4.20;99.90
43015;DHT22;28637;50.554;7.032;2023-01-16T17:53:52;4.20;99.90
43015;DHT22;28637;50.554;7.032;2023-01-16T17:58:53;4.20;99.90
43015;DHT22;28637;50.554;7.032;2023-01-16T18:03:58;4.20;99.90
43015;DHT22;28637;50.554;7.032;2023-01-16T18:09:30;4.20;99.90
43015;DHT22;28637;50.554;7.032;2023-01-16T18:14:31;4.20;99.90
43015;DHT22;28637;50.554;7.032;2023-01-16T18:19:52;4.20;99.90
43015;DHT22;28637;50.554;7.032;2023-01-16T18:24:56;4.20;99.90
43015;DHT22;28637;50.554;7.032;2023-01-16T18:29:56;4.10;99.90
43015;DHT22;28637;50.554;7.032;2023-01-16T18:35:02;4.10;99.90
43015;DHT22;28637;50.554;7.032;2023-01-16T18:40:07;4.00;99.90
43015;DHT22;28637;50.554;7.032;2023-01-16T18:45:27;3.90;99.90
43015;DHT22;28637;50.554;7.032;2023-01-16T18:50:47;3.90;99.90
43015;DHT22;28637;50.554;7.032;2023-01-16T18:56:14;3.80;99.90
43015;DHT22;28637;50.554;7.032;2023-01-16T19:01:35;3.80;99.90
43015;DHT22;28637;50.554;7.032;2023-01-16T19:06:58;3.80;99.90
43015;DHT22;28637;50.554;7.032;2023-01-16T19:11:59;3.80;99.90
43015;DHT22;28637;50.554;7.032;2023-01-16T19:17:03;3.90;99.90
43015;DHT22;28637;50.554;7.032;2023-01-16T19:22:03;3.90;99.90
43015;DHT22;28637;50.554;7.032;2023-01-16T19:27:04;4.00;99.90
43015;DHT22;28637;50.554;7.032;2023-01-16T19:32:05;4.00;99.90
43015;DHT22;28637;50.554;7.032;2023-01-16T19:37:06;4.00;99.90
43015;DHT22;28637;50.554;7.032;2023-01-16T19:42:08;4.10;99.90
43015;DHT22;28637;50.554;7.032;2023-01-16T19:47:28;4.00;99.90
43015;DHT22;28637;50.554;7.032;2023-01-16T19:52:29;3.90;99.90
43015;DHT22;28637;50.554;7.032;2023-01-16T19:57:30;3.70;99.90
43015;DHT22;28637;50.554;7.032;2023-01-16T20:02:30;3.50;99.90
43015;DHT22;28637;50.554;7.032;2023-01-16T20:07:31;3.50;99.90
43015;DHT22;28637;50.554;7.032;2023-01-16T20:12:32;4.00;99.90
43015;DHT22;28637;50.554;7.032;2023-01-16T20:17:36;3.90;99.90
43015;DHT22;28637;50.554;7.032;2023-01-16T20:22:37;3.90;99.90
43015;DHT22;28637;50.554;7.032;2023-01-16T20:27:39;3.80;99.90
43015;DHT22;28637;50.554;7.032;2023-01-16T20:32:40;3.80;99.90
43015;DHT22;28637;50.554;7.032;2023-01-16T20:37:41;3.80;99.90
43015;DHT22;28637;50.554;7.032;2023-01-16T20:42:41;3.90;99.90
43015;DHT22;28637;50.554;7.032;2023-01-16T20:48:01;3.90;99.90
43015;DHT22;28637;50.554;7.032;2023-01-16T20:53:02;3.80;99.90
43015;DHT22;28637;50.554;7.032;2023-01-16T20:58:03;3.80;99.90
43015;DHT22;28637;50.554;7.032;2023-01-16T21:03:03;3.80;99.90
43015;DHT22;28637;50.554;7.032;2023-01-16T21:08:04;3.80;99.90
43015;DHT22;28637;50.554;7.032;2023-01-16T21:13:05;3.80;99.90
43015;DHT22;28637;50.554;7.032;2023-01-16T21:18:25;3.70;99.90
43015;DHT22;28637;50.554;7.032;2023-01-16T21:23:44;3.70;99.90
43015;DHT22;28637;50.554;7.032;2023-01-16T21:28:44;3.70;99.90
43015;DHT22;28637;50.554;7.032;2023-01-16T21:33:45;3.80;99.90
43015;DHT22;28637;50.554;7.032;2023-01-16T21:38:46;3.70;99.90
43015;DHT22;28637;50.554;7.032;2023-01-16T21:43:47;3.70;99.90
43015;DHT22;28637;50.554;7.032;2023-01-16T21:49:06;3.70;99.90
43015;DHT22;28637;50.554;7.032;2023-01-16T21:54:06;3.60;99.90
43015;DHT22;28637;50.554;7.032;2023-01-16T21:59:08;3.60;99.90
43015;DHT22;28637;50.554;7.032;2023-01-16T22:04:09;3.50;99.90
43015;DHT22;28637;50.554;7.032;2023-01-16T22:09:10;3.50;99.90
43015;DHT22;28637;50.554;7.032;2023-01-16T22:14:11;3.50;99.90
43015;DHT22;28637;50.554;7.032;2023-01-16T22:19:48;3.40;99.90
43015;DHT22;28637;50.554;7.032;2023-01-16T22:24:48;3.30;99.90
43015;DHT22;28637;50.554;7.032;2023-01-16T22:29:49;3.40;99.90
43015;DHT22;28637;50.554;7.032;2023-01-16T22:34:51;3.50;99.90
43015;DHT22;28637;50.554;7.032;2023-01-16T22:39:51;3.50;99.90
43015;DHT22;28637;50.554;7.032;2023-01-16T22:44:52;3.40;99.90
43015;DHT22;28637;50.554;7.032;2023-01-16T22:50:25;3.30;99.90
43015;DHT22;28637;50.554;7.032;2023-01-16T22:55:25;3.40;99.90
43015;DHT22;28637;50.554;7.032;2023-01-16T23:00:26;3.40;99.90
43015;DHT22;28637;50.554;7.032;2023-01-16T23:05:27;3.40;99.90
43015;DHT22;28637;50.554;7.032;2023-01-16T23:10:28;3.30;99.90
43015;DHT22;28637;50.554;7.032;2023-01-16T23:15:29;3.30;99.90
43015;DHT22;28637;50.554;7.032;2023-01-16T23:20:32;3.30;99.90
43015;DHT22;28637;50.554;7.032;2023-01-16T23:25:33;3.30;99.90
43015;DHT22;28637;50.554;7.032;2023-01-16T23:30:34;3.30;99.90
43015;DHT22;28637;50.554;7.032;2023-01-16T23:35:34;3.30;99.90
43015;DHT22;28637;50.554;7.032;2023-01-16T23:40:35;3.10;99.90
43015;DHT22;28637;50.554;7.032;2023-01-16T23:45:36;3.00;99.90
43015;DHT22;28637;50.554;7.032;2023-01-16T23:50:36;2.80;99.90
43015;DHT22;28637;50.554;7.032;2023-01-16T23:55:37;2.70;99.90
